createdAt,value
2023-02-06T00:00:09.742Z,0.42
2023-02-06T00:02:38.765Z,0.57
2023-02-06T00:05:08.429Z,0.49
2023-02-06T00:07:37.346Z,0.61
2023-02-06T00:10:06.923Z,0.53
2023-02-06T00:12:38.214Z,0.54
2023-02-06T00:15:07.685Z,1.01
2023-02-06T00:17:37.161Z,0.69
2023-02-06T00:20:07.538Z,0.76
2023-02-06T00:22:36.987Z,0.61
2023-02-06T00:25:07.037Z,0.67
2023-02-06T00:27:37.587Z,0.59
2023-02-06T00:30:07.556Z,0.69
2023-02-06T00:32:36.999Z,0.38
2023-02-06T00:35:06.878Z,0.65
2023-02-06T00:37:35.878Z,0.60
2023-02-06T00:40:05.061Z,0.36
2023-02-06T00:42:34.572Z,0.72
2023-02-06T00:45:05.344Z,0.22
2023-02-06T00:47:35.590Z,0.87
2023-02-06T00:50:05.412Z,0.65
2023-02-06T00:52:34.738Z,0.54
2023-02-06T00:55:03.693Z,0.89
2023-02-06T00:57:32.711Z,0.92
2023-02-06T01:00:01.616Z,0.92
2023-02-06T01:02:32.719Z,0.95
2023-02-06T01:05:02.109Z,0.96
2023-02-06T01:07:31.785Z,0.59
2023-02-06T01:10:01.081Z,0.63
2023-02-06T01:12:30.070Z,0.63
2023-02-06T01:14:59.533Z,0.74
2023-02-06T01:17:28.844Z,0.80
2023-02-06T01:19:59.573Z,0.86
2023-02-06T01:22:29.330Z,0.95
2023-02-06T01:24:58.692Z,1.10
2023-02-06T01:27:27.647Z,1.05
2023-02-06T01:29:56.619Z,0.98
2023-02-06T01:32:25.910Z,0.84
2023-02-06T01:34:54.877Z,1.08
2023-02-06T01:37:25.349Z,1.18
2023-02-06T01:39:54.353Z,0.91
2023-02-06T01:42:24.383Z,1.10
2023-02-06T01:45:26.611Z,1.32
2023-02-06T01:48:00.451Z,1.33
2023-02-06T01:50:29.638Z,1.21
2023-02-06T01:53:00.654Z,1.03
2023-02-06T01:55:29.643Z,0.81
2023-02-06T01:58:01.696Z,0.93
2023-02-06T02:00:31.356Z,0.66
2023-02-06T02:03:00.425Z,1.03
2023-02-06T02:05:29.399Z,0.83
2023-02-06T02:08:07.578Z,0.65
2023-02-06T02:10:37.595Z,0.98
2023-02-06T02:13:08.809Z,0.43
2023-02-06T02:15:47.087Z,0.86
2023-02-06T02:18:29.796Z,0.79
2023-02-06T02:21:46.311Z,1.04
2023-02-06T02:24:24.670Z,0.77
2023-02-06T02:27:27.974Z,0.92
2023-02-06T02:30:46.420Z,1.14
2023-02-06T02:34:00.945Z,1.10
2023-02-06T02:36:37.314Z,0.73
2023-02-06T02:39:16.097Z,0.88
2023-02-06T02:41:52.004Z,1.19
2023-02-06T02:44:30.793Z,1.26
2023-02-06T02:47:04.931Z,0.95
2023-02-06T02:49:37.921Z,0.96
2023-02-06T02:52:08.529Z,0.92
2023-02-06T02:54:37.796Z,1.27
2023-02-06T02:57:10.927Z,1.38
2023-02-06T02:59:44.822Z,1.27
2023-02-06T03:02:15.717Z,1.27
2023-02-06T03:04:51.467Z,0.91
2023-02-06T03:07:33.523Z,1.11
2023-02-06T03:10:11.642Z,0.95
2023-02-06T03:12:47.348Z,1.04
2023-02-06T03:15:26.315Z,0.90
2023-02-06T03:18:01.011Z,1.12
2023-02-06T03:20:33.159Z,0.97
2023-02-06T03:23:05.159Z,0.40
2023-02-06T03:25:37.403Z,1.22
2023-02-06T03:28:08.748Z,0.84
2023-02-06T03:30:40.075Z,1.12
2023-02-06T03:33:12.104Z,0.81
2023-02-06T03:35:41.725Z,1.09
2023-02-06T03:38:12.233Z,1.02
2023-02-06T03:40:45.199Z,0.70
2023-02-06T03:43:18.873Z,0.43
2023-02-06T03:45:49.732Z,0.18
2023-02-06T03:48:24.702Z,-0.30
2023-02-06T03:50:56.783Z,0.47
2023-02-06T03:53:28.013Z,0.51
2023-02-06T03:56:02.230Z,0.33
2023-02-06T03:58:32.129Z,0.44
2023-02-06T04:01:02.202Z,0.25
2023-02-06T04:03:32.014Z,0.76
2023-02-06T04:06:02.006Z,0.27
2023-02-06T04:08:32.509Z,0.26
2023-02-06T04:11:01.603Z,0.38
2023-02-06T04:13:30.681Z,0.64
2023-02-06T04:15:59.672Z,0.56
2023-02-06T04:18:28.685Z,0.30
2023-02-06T04:20:57.699Z,0.60
2023-02-06T04:23:26.951Z,0.05
2023-02-06T04:25:57.313Z,0.82
2023-02-06T04:28:26.249Z,0.55
2023-02-06T04:30:55.544Z,0.56
2023-02-06T04:33:24.544Z,0.74
2023-02-06T04:35:53.815Z,0.59
2023-02-06T04:38:22.858Z,0.33
2023-02-06T04:40:51.879Z,0.29
2023-02-06T04:43:22.430Z,0.62
2023-02-06T04:45:51.550Z,0.63
2023-02-06T04:48:20.860Z,0.45
2023-02-06T04:50:50.788Z,0.81
2023-02-06T04:53:20.395Z,0.56
2023-02-06T04:55:49.706Z,0.52
2023-02-06T04:58:18.935Z,0.60
2023-02-06T05:00:50.471Z,0.36
2023-02-06T05:03:19.411Z,0.51
2023-02-06T05:05:48.466Z,0.67
2023-02-06T05:08:18.100Z,0.54
2023-02-06T05:10:47.312Z,0.41
2023-02-06T05:13:16.635Z,0.47
2023-02-06T05:15:46.553Z,0.95
2023-02-06T05:18:17.211Z,0.34
2023-02-06T05:20:46.694Z,0.29
2023-02-06T05:23:15.923Z,0.72
2023-02-06T05:25:45.378Z,0.69
2023-02-06T05:28:15.106Z,0.64
2023-02-06T05:30:44.901Z,0.34
2023-02-06T05:33:13.835Z,0.79
2023-02-06T05:35:44.194Z,0.44
2023-02-06T05:38:13.326Z,0.79
2023-02-06T05:40:42.453Z,0.47
2023-02-06T05:43:11.662Z,0.32
2023-02-06T05:45:41.111Z,0.29
2023-02-06T05:48:10.286Z,0.28
2023-02-06T05:50:39.561Z,0.53
2023-02-06T05:53:18.920Z,0.51
2023-02-06T05:55:48.383Z,0.36
2023-02-06T05:58:18.873Z,0.24
2023-02-06T06:00:47.820Z,0.64
2023-02-06T06:03:16.718Z,0.30
2023-02-06T06:05:46.483Z,0.72
2023-02-06T06:08:15.969Z,0.50
2023-02-06T06:10:46.337Z,-0.09
2023-02-06T06:13:15.637Z,0.09
2023-02-06T06:15:45.184Z,0.92
2023-02-06T06:18:14.543Z,0.76
2023-02-06T06:20:43.639Z,1.03
2023-02-06T06:23:12.959Z,0.88
2023-02-06T06:25:42.158Z,0.39
2023-02-06T06:28:13.362Z,0.59
2023-02-06T06:30:42.621Z,0.78
2023-02-06T06:33:12.091Z,0.84
2023-02-06T06:35:42.337Z,0.66
2023-02-06T06:38:12.506Z,0.98
2023-02-06T06:40:45.563Z,0.85
2023-02-06T06:43:16.087Z,0.65
2023-02-06T06:45:45.361Z,1.35
2023-02-06T06:48:14.372Z,1.48
2023-02-06T06:50:43.881Z,1.48
2023-02-06T06:53:12.870Z,1.60
2023-02-06T06:55:42.197Z,1.30
2023-02-06T06:58:17.875Z,1.59
2023-02-06T07:00:48.314Z,1.15
2023-02-06T07:03:17.341Z,0.93
2023-02-06T07:05:47.440Z,1.26
2023-02-06T07:08:16.515Z,0.66
2023-02-06T07:10:45.824Z,0.70
2023-02-06T07:13:15.582Z,1.33
2023-02-06T07:15:45.012Z,1.04
2023-02-06T07:18:15.448Z,1.57
2023-02-06T07:20:45.005Z,1.00
2023-02-06T07:23:14.419Z,0.91
2023-02-06T07:25:44.241Z,1.34
2023-02-06T07:28:13.363Z,1.61
2023-02-06T07:30:42.923Z,1.48
2023-02-06T07:33:12.168Z,1.24
2023-02-06T07:35:43.978Z,0.97
2023-02-06T07:38:13.319Z,1.38
2023-02-06T07:40:45.331Z,1.70
2023-02-06T07:43:15.776Z,1.52
2023-02-06T07:45:45.944Z,1.62
2023-02-06T07:48:15.183Z,1.53
2023-02-06T07:50:46.737Z,1.42
2023-02-06T07:53:15.930Z,1.21
2023-02-06T07:55:45.673Z,0.37
2023-02-06T07:58:14.780Z,0.67
2023-02-06T08:00:45.860Z,1.06
2023-02-06T08:03:15.579Z,1.54
2023-02-06T08:05:46.051Z,1.80
2023-02-06T08:08:15.238Z,1.75
2023-02-06T08:10:44.348Z,2.15
2023-02-06T08:13:14.648Z,1.70
2023-02-06T08:15:45.082Z,-0.44
2023-02-06T08:18:14.364Z,1.51
2023-02-06T08:20:43.661Z,1.90
2023-02-06T08:23:14.237Z,1.95
2023-02-06T08:25:44.046Z,0.91
2023-02-06T08:28:17.186Z,0.49
2023-02-06T08:30:47.208Z,0.91
2023-02-06T08:33:16.827Z,1.09
2023-02-06T08:35:45.959Z,1.65
2023-02-06T08:38:16.760Z,1.85
2023-02-06T08:40:46.052Z,0.61
2023-02-06T08:43:15.563Z,1.13
2023-02-06T08:45:48.891Z,1.10
2023-02-06T08:48:18.465Z,0.70
2023-02-06T08:50:50.243Z,1.80
2023-02-06T08:53:20.904Z,2.78
2023-02-06T08:55:49.992Z,2.51
2023-02-06T08:58:19.994Z,1.94
2023-02-06T09:00:48.927Z,1.16
2023-02-06T09:03:18.503Z,1.37
2023-02-06T09:05:47.494Z,2.01
2023-02-06T09:08:16.597Z,2.13
2023-02-06T09:10:47.376Z,2.42
2023-02-06T09:13:16.907Z,2.35
2023-02-06T09:15:52.923Z,2.75
2023-02-06T09:18:22.284Z,1.86
2023-02-06T09:20:51.440Z,1.53
2023-02-06T09:23:21.112Z,1.26
2023-02-06T09:25:52.011Z,2.09
2023-02-06T09:28:21.265Z,1.10
2023-02-06T09:30:50.671Z,1.08
2023-02-06T09:33:48.854Z,1.36
2023-02-06T09:36:19.604Z,1.27
2023-02-06T09:38:50.329Z,1.68
2023-02-06T09:41:29.031Z,1.38
2023-02-06T09:44:04.285Z,1.33
2023-02-06T09:46:37.137Z,1.46
2023-02-06T09:49:13.847Z,1.05
2023-02-06T09:51:57.631Z,0.96
2023-02-06T09:54:37.442Z,0.73
2023-02-06T09:57:12.554Z,1.51
2023-02-06T09:59:47.800Z,0.47
2023-02-06T10:02:36.056Z,0.49
2023-02-06T10:05:13.611Z,0.58
2023-02-06T10:08:01.729Z,1.12
2023-02-06T10:10:38.492Z,0.20
2023-02-06T10:13:17.401Z,1.26
2023-02-06T10:15:49.907Z,-0.53
2023-02-06T10:18:28.960Z,1.26
2023-02-06T10:21:03.688Z,1.25
2023-02-06T10:23:40.757Z,2.91
2023-02-06T10:26:17.340Z,2.51
2023-02-06T10:28:51.099Z,2.73
2023-02-06T10:31:45.116Z,2.08
2023-02-06T10:34:32.149Z,3.35
2023-02-06T10:37:15.943Z,2.49
2023-02-06T10:40:09.681Z,3.24
2023-02-06T10:42:48.033Z,1.92
2023-02-06T10:45:33.060Z,1.21
2023-02-06T10:48:10.473Z,1.82
2023-02-06T10:50:45.620Z,1.49
2023-02-06T10:53:24.542Z,2.51
2023-02-06T10:55:56.686Z,2.17
2023-02-06T10:58:28.542Z,2.49
2023-02-06T11:01:00.589Z,3.04
2023-02-06T11:03:32.398Z,3.56
2023-02-06T11:06:03.950Z,2.71
2023-02-06T11:08:38.167Z,3.36
2023-02-06T11:11:20.511Z,2.90
2023-02-06T11:13:53.898Z,2.90
2023-02-06T11:16:27.684Z,5.45
2023-02-06T11:18:57.549Z,4.17
2023-02-06T11:21:51.064Z,3.08
2023-02-06T11:24:24.558Z,3.19
2023-02-06T11:26:57.459Z,2.62
2023-02-06T11:29:31.830Z,2.11
2023-02-06T11:32:04.550Z,3.02
2023-02-06T11:34:35.821Z,3.33
2023-02-06T11:37:07.106Z,2.52
2023-02-06T11:39:38.000Z,3.07
2023-02-06T11:42:21.460Z,3.18
2023-02-06T11:44:52.237Z,4.04
2023-02-06T11:47:31.398Z,2.85
2023-02-06T11:50:23.591Z,2.40
2023-02-06T11:52:58.792Z,2.40
2023-02-06T11:55:30.080Z,7.74
2023-02-06T11:58:05.787Z,5.82
2023-02-06T12:00:38.247Z,4.18
2023-02-06T12:03:43.734Z,2.80
2023-02-06T12:06:17.226Z,7.99
2023-02-06T12:08:50.036Z,12.64
2023-02-06T12:11:26.977Z,14.10
2023-02-06T12:13:59.499Z,12.03
2023-02-06T12:16:30.286Z,13.06
2023-02-06T12:19:04.447Z,13.12
2023-02-06T12:21:44.813Z,12.28
2023-02-06T12:24:28.191Z,14.09
2023-02-06T12:27:01.853Z,13.47
2023-02-06T12:29:36.826Z,16.12
2023-02-06T12:32:15.157Z,14.35
2023-02-06T12:34:56.189Z,12.12
2023-02-06T12:37:37.914Z,5.43
2023-02-06T12:40:15.017Z,2.53
2023-02-06T12:42:48.651Z,3.22
2023-02-06T12:45:32.537Z,2.54
2023-02-06T12:48:10.084Z,1.66
2023-02-06T12:50:56.543Z,2.31
2023-02-06T12:53:31.721Z,2.23
2023-02-06T12:56:05.508Z,1.88
2023-02-06T12:58:53.662Z,1.71
2023-02-06T13:01:34.755Z,1.88
2023-02-06T13:04:06.797Z,2.34
2023-02-06T13:06:45.784Z,2.22
2023-02-06T13:09:22.681Z,1.35
2023-02-06T13:11:52.523Z,1.54
2023-02-06T13:14:25.233Z,1.16
2023-02-06T13:16:58.309Z,1.57
2023-02-06T13:19:31.381Z,2.61
2023-02-06T13:22:24.532Z,3.22
2023-02-06T13:24:53.742Z,3.14
2023-02-06T13:27:25.928Z,6.20
2023-02-06T13:29:55.693Z,9.29
2023-02-06T13:32:43.274Z,2.45
2023-02-06T13:35:22.173Z,1.81
2023-02-06T13:38:12.527Z,2.29
2023-02-06T13:40:42.592Z,2.16
2023-02-06T13:43:18.732Z,1.41
2023-02-06T13:45:54.567Z,1.58
2023-02-06T13:48:52.281Z,1.94
2023-02-06T13:51:50.523Z,1.81
2023-02-06T13:54:55.545Z,0.68
2023-02-06T13:57:36.047Z,1.38
2023-02-06T14:00:13.438Z,1.32
2023-02-06T14:02:46.714Z,0.63
2023-02-06T14:05:20.703Z,0.67
2023-02-06T14:08:09.027Z,0.36
2023-02-06T14:11:00.174Z,0.84
2023-02-06T14:13:47.159Z,1.08
2023-02-06T14:16:33.661Z,0.99
2023-02-06T14:19:06.060Z,-0.90
2023-02-06T14:21:46.908Z,-0.12
2023-02-06T14:24:38.357Z,1.22
2023-02-06T14:27:23.804Z,0.65
2023-02-06T14:29:58.962Z,0.55
2023-02-06T14:33:15.385Z,0.67
2023-02-06T14:36:05.361Z,-0.24
2023-02-06T14:39:11.780Z,0.54
2023-02-06T14:41:41.345Z,0.57
2023-02-06T14:44:16.964Z,0.46
2023-02-06T14:46:47.110Z,0.30
2023-02-06T14:49:20.071Z,0.07
2023-02-06T14:51:52.458Z,-0.03
2023-02-06T14:54:34.215Z,0.21
2023-02-06T14:57:06.002Z,0.15
2023-02-06T14:59:36.943Z,0.43
2023-02-06T15:02:15.313Z,0.08
2023-02-06T15:04:49.048Z,0.24
2023-02-06T15:07:25.128Z,-0.10
2023-02-06T15:10:00.736Z,-0.02
2023-02-06T15:12:32.284Z,-0.11
2023-02-06T15:15:16.328Z,0.09
2023-02-06T15:17:45.390Z,-0.06
2023-02-06T15:20:28.985Z,-0.31
2023-02-06T15:23:16.632Z,0.34
2023-02-06T15:26:05.252Z,-0.16
2023-02-06T15:28:38.127Z,-0.28
2023-02-06T15:31:18.733Z,0.01
2023-02-06T15:33:51.478Z,-0.52
2023-02-06T15:36:30.079Z,-0.33
2023-02-06T15:39:00.573Z,-0.44
2023-02-06T15:41:31.685Z,0.33
2023-02-06T15:44:04.278Z,-0.23
2023-02-06T15:46:35.245Z,0.11
2023-02-06T15:49:04.550Z,0.42
2023-02-06T15:51:42.607Z,0.35
2023-02-06T15:54:27.338Z,0.21
2023-02-06T15:57:02.719Z,-0.30
2023-02-06T15:59:35.666Z,0.01
2023-02-06T16:02:06.911Z,-0.05
2023-02-06T16:04:39.714Z,0.01
2023-02-06T16:07:17.662Z,-0.56
2023-02-06T16:10:10.821Z,-0.59
2023-02-06T16:12:42.331Z,-0.32
2023-02-06T16:15:27.591Z,-0.30
2023-02-06T16:18:17.093Z,-0.23
2023-02-06T16:20:47.736Z,-0.38
2023-02-06T16:23:23.400Z,-0.08
2023-02-06T16:26:03.299Z,-0.05
2023-02-06T16:28:32.598Z,0.28
2023-02-06T16:31:04.743Z,-0.23
2023-02-06T16:33:39.237Z,-0.08
2023-02-06T16:36:10.582Z,-0.22
2023-02-06T16:38:40.095Z,-0.05
2023-02-06T16:41:25.948Z,0.04
2023-02-06T16:43:55.973Z,-0.64
2023-02-06T16:46:26.123Z,-0.04
2023-02-06T16:48:57.611Z,-0.15
2023-02-06T16:51:32.131Z,-0.18
2023-02-06T16:54:02.704Z,-0.05
2023-02-06T16:56:33.156Z,-1.23
2023-02-06T16:59:02.980Z,-0.91
2023-02-06T17:01:33.038Z,-0.38
2023-02-06T17:04:04.466Z,-0.07
2023-02-06T17:07:20.108Z,-0.65
2023-02-06T17:10:05.462Z,-0.45
2023-02-06T17:12:36.369Z,-2.41
2023-02-06T17:15:10.093Z,-0.18
2023-02-06T17:17:41.590Z,-0.57
2023-02-06T17:20:27.587Z,-0.39
2023-02-06T17:22:59.745Z,-0.80
2023-02-06T17:25:30.264Z,-0.94
2023-02-06T17:28:02.579Z,-0.83
2023-02-06T17:30:32.796Z,-0.63
2023-02-06T17:33:07.284Z,-0.89
2023-02-06T17:35:41.219Z,-0.84
2023-02-06T17:38:12.062Z,-0.83
2023-02-06T17:40:43.713Z,-0.71
2023-02-06T17:43:13.033Z,-0.43
2023-02-06T17:45:42.919Z,-0.73
2023-02-06T17:48:26.306Z,-0.63
2023-02-06T17:50:58.960Z,-0.41
2023-02-06T17:53:28.176Z,-0.59
2023-02-06T17:55:57.612Z,-0.83
2023-02-06T17:58:28.034Z,-1.69
2023-02-06T18:00:57.081Z,-0.56
2023-02-06T18:03:29.614Z,-0.94
2023-02-06T18:06:02.306Z,-0.90
2023-02-06T18:08:32.654Z,-0.94
2023-02-06T18:11:03.549Z,-0.88
2023-02-06T18:13:35.064Z,-0.88
2023-02-06T18:16:04.412Z,-1.19
2023-02-06T18:18:33.604Z,-1.22
2023-02-06T18:21:04.309Z,-0.80
2023-02-06T18:23:34.198Z,-1.01
2023-02-06T18:26:04.478Z,-1.16
2023-02-06T18:28:36.234Z,-1.48
2023-02-06T18:31:07.529Z,-1.46
2023-02-06T18:33:37.703Z,-1.26
2023-02-06T18:36:09.783Z,-1.33
2023-02-06T18:38:40.632Z,-1.16
2023-02-06T18:41:30.990Z,-1.67
2023-02-06T18:44:01.088Z,-1.35
2023-02-06T18:46:33.321Z,-1.38
2023-02-06T18:49:03.390Z,-1.50
2023-02-06T18:51:34.515Z,-1.52
2023-02-06T18:54:04.860Z,-1.99
2023-02-06T18:56:36.170Z,-1.48
2023-02-06T18:59:40.818Z,-1.35
2023-02-06T19:02:16.677Z,-1.62
2023-02-06T19:04:47.215Z,-1.42
2023-02-06T19:07:18.885Z,-1.22
2023-02-06T19:09:48.440Z,-1.23
2023-02-06T19:12:17.880Z,-1.36
2023-02-06T19:14:47.192Z,-1.64
2023-02-06T19:17:16.933Z,-1.73
2023-02-06T19:19:46.626Z,-1.52
2023-02-06T19:22:17.687Z,-2.01
2023-02-06T19:24:47.081Z,-1.80
2023-02-06T19:27:16.099Z,-1.93
2023-02-06T19:29:45.540Z,-1.71
2023-02-06T19:32:15.169Z,-1.81
2023-02-06T19:34:45.355Z,-1.73
2023-02-06T19:37:14.819Z,-1.80
2023-02-06T19:39:46.059Z,-1.64
2023-02-06T19:42:17.254Z,-3.41
2023-02-06T19:44:46.840Z,-3.77
2023-02-06T19:47:15.953Z,-3.89
2023-02-06T19:49:45.364Z,-3.79
2023-02-06T19:52:15.000Z,-3.64
2023-02-06T19:54:48.020Z,-3.78
2023-02-06T19:57:19.427Z,-3.66
2023-02-06T19:59:49.451Z,-4.09
2023-02-06T20:02:19.779Z,-3.88
2023-02-06T20:04:49.349Z,-3.70
2023-02-06T20:07:19.224Z,-3.77
2023-02-06T20:09:51.244Z,-3.60
2023-02-06T20:12:20.744Z,-3.71
2023-02-06T20:14:49.946Z,-1.93
2023-02-06T20:17:19.543Z,-1.47
2023-02-06T20:19:48.979Z,-1.41
2023-02-06T20:22:17.949Z,-1.23
2023-02-06T20:24:47.415Z,-1.59
2023-02-06T20:27:18.060Z,-1.22
2023-02-06T20:29:48.176Z,-1.42
2023-02-06T20:32:19.535Z,-1.42
2023-02-06T20:34:49.424Z,-1.05
2023-02-06T20:37:19.102Z,-0.98
2023-02-06T20:39:49.238Z,-1.40
2023-02-06T20:42:22.698Z,-1.43
2023-02-06T20:44:52.960Z,-1.54
2023-02-06T20:47:22.619Z,-1.19
2023-02-06T20:49:52.495Z,-1.26
2023-02-06T20:52:21.898Z,-1.36
2023-02-06T20:54:51.059Z,-2.16
2023-02-06T20:57:23.150Z,-1.17
2023-02-06T20:59:52.772Z,-1.01
2023-02-06T21:02:22.460Z,-1.16
2023-02-06T21:04:52.456Z,-1.43
2023-02-06T21:07:22.122Z,-1.05
2023-02-06T21:09:52.447Z,-1.88
2023-02-06T21:12:22.858Z,-1.28
2023-02-06T21:14:52.541Z,-1.39
2023-02-06T21:17:21.786Z,-1.44
2023-02-06T21:19:51.239Z,-1.35
2023-02-06T21:22:20.524Z,-1.84
2023-02-06T21:24:49.991Z,-1.50
2023-02-06T21:27:19.604Z,-1.27
2023-02-06T21:29:50.299Z,-1.48
2023-02-06T21:32:19.878Z,-1.35
2023-02-06T21:34:49.250Z,-1.41
2023-02-06T21:37:18.607Z,-1.41
2023-02-06T21:39:47.971Z,-1.35
2023-02-06T21:42:20.536Z,-1.21
2023-02-06T21:44:50.972Z,-1.14
2023-02-06T21:47:20.141Z,-1.50
2023-02-06T21:49:49.558Z,-1.52
2023-02-06T21:52:18.962Z,-1.30
2023-02-06T21:54:48.085Z,-1.11
2023-02-06T21:57:17.295Z,-1.70
2023-02-06T21:59:46.786Z,-1.64
2023-02-06T22:02:17.429Z,-1.61
2023-02-06T22:04:47.123Z,-1.35
2023-02-06T22:07:16.126Z,-1.53
2023-02-06T22:09:45.256Z,-1.28
2023-02-06T22:12:14.460Z,-1.43
2023-02-06T22:14:43.719Z,-1.45
2023-02-06T22:17:12.899Z,-2.09
2023-02-06T22:19:43.787Z,-1.45
2023-02-06T22:22:13.669Z,-1.49
2023-02-06T22:24:44.291Z,-1.38
2023-02-06T22:27:13.720Z,-1.27
2023-02-06T22:29:43.124Z,-1.51
2023-02-06T22:32:12.334Z,-1.78
2023-02-06T22:34:41.585Z,-1.84
2023-02-06T22:37:12.262Z,-2.12
2023-02-06T22:39:41.403Z,-1.76
2023-02-06T22:42:10.391Z,-1.85
